sensor_id;sensor_type;location;lat;lon;timestamp;P1;durP1;ratioP1;P2;durP2;ratioP2
22737;SDS011;11536;50.860;4.286;2022-07-03T00:01:23;3.38;;;1.00;;
22737;SDS011;11536;50.860;4.286;2022-07-03T00:03:49;5.47;;;1.08;;
22737;SDS011;11536;50.860;4.286;2022-07-03T00:06:15;4.88;;;1.02;;
22737;SDS011;11536;50.860;4.286;2022-07-03T00:08:41;3.85;;;1.10;;
22737;SDS011;11536;50.860;4.286;2022-07-03T00:11:06;4.18;;;1.00;;
22737;SDS011;11536;50.860;4.286;2022-07-03T00:13:33;6.03;;;1.05;;
22737;SDS011;11536;50.860;4.286;2022-07-03T00:15:59;3.10;;;0.80;;
22737;SDS011;11536;50.860;4.286;2022-07-03T00:18:24;4.85;;;0.82;;
22737;SDS011;11536;50.860;4.286;2022-07-03T00:20:53;2.47;;;0.90;;
22737;SDS011;11536;50.860;4.286;2022-07-03T00:23:24;4.30;;;0.90;;
22737;SDS011;11536;50.860;4.286;2022-07-03T00:25:52;2.30;;;0.90;;
22737;SDS011;11536;50.860;4.286;2022-07-03T00:28:19;3.80;;;1.02;;
22737;SDS011;11536;50.860;4.286;2022-07-03T00:30:48;4.20;;;1.00;;
22737;SDS011;11536;50.860;4.286;2022-07-03T00:33:14;2.55;;;1.00;;
22737;SDS011;11536;50.860;4.286;2022-07-03T00:35:40;3.70;;;1.08;;
22737;SDS011;11536;50.860;4.286;2022-07-03T00:38:10;3.83;;;1.00;;
22737;SDS011;11536;50.860;4.286;2022-07-03T00:40:37;2.70;;;0.80;;
22737;SDS011;11536;50.860;4.286;2022-07-03T00:43:03;3.65;;;0.85;;
22737;SDS011;11536;50.860;4.286;2022-07-03T00:45:32;3.95;;;0.98;;
22737;SDS011;11536;50.860;4.286;2022-07-03T00:47:59;3.50;;;0.90;;
22737;SDS011;11536;50.860;4.286;2022-07-03T00:50:27;5.25;;;1.13;;
22737;SDS011;11536;50.860;4.286;2022-07-03T00:52:59;3.88;;;1.20;;
22737;SDS011;11536;50.860;4.286;2022-07-03T00:55:28;4.32;;;1.20;;
22737;SDS011;11536;50.860;4.286;2022-07-03T00:57:54;3.40;;;1.00;;
22737;SDS011;11536;50.860;4.286;2022-07-03T01:00:22;4.30;;;1.08;;
22737;SDS011;11536;50.860;4.286;2022-07-03T01:05:43;4.03;;;1.02;;
22737;SDS011;11536;50.860;4.286;2022-07-03T01:11:21;4.38;;;1.20;;
22737;SDS011;11536;50.860;4.286;2022-07-03T01:14:15;3.50;;;1.00;;
22737;SDS011;11536;50.860;4.286;2022-07-03T01:17:04;3.95;;;1.20;;
22737;SDS011;11536;50.860;4.286;2022-07-03T01:30:33;3.35;;;1.08;;
22737;SDS011;11536;50.860;4.286;2022-07-03T01:35:37;3.10;;;0.82;;
22737;SDS011;11536;50.860;4.286;2022-07-03T01:38:10;4.22;;;1.15;;
22737;SDS011;11536;50.860;4.286;2022-07-03T01:40:40;3.70;;;0.90;;
22737;SDS011;11536;50.860;4.286;2022-07-03T01:43:08;3.47;;;1.00;;
22737;SDS011;11536;50.860;4.286;2022-07-03T01:45:45;4.75;;;1.05;;
22737;SDS011;11536;50.860;4.286;2022-07-03T01:48:13;2.75;;;0.90;;
22737;SDS011;11536;50.860;4.286;2022-07-03T01:50:40;5.43;;;1.45;;
22737;SDS011;11536;50.860;4.286;2022-07-03T01:53:08;4.82;;;1.20;;
22737;SDS011;11536;50.860;4.286;2022-07-03T01:55:37;2.63;;;1.02;;
22737;SDS011;11536;50.860;4.286;2022-07-03T01:58:04;6.32;;;1.02;;
22737;SDS011;11536;50.860;4.286;2022-07-03T02:00:30;3.08;;;1.00;;
22737;SDS011;11536;50.860;4.286;2022-07-03T02:03:04;4.47;;;0.90;;
22737;SDS011;11536;50.860;4.286;2022-07-03T02:05:36;3.58;;;0.85;;
22737;SDS011;11536;50.860;4.286;2022-07-03T02:08:16;4.85;;;1.13;;
22737;SDS011;11536;50.860;4.286;2022-07-03T02:10:49;4.32;;;0.98;;
22737;SDS011;11536;50.860;4.286;2022-07-03T02:13:27;2.03;;;0.90;;
22737;SDS011;11536;50.860;4.286;2022-07-03T02:15:53;3.22;;;1.13;;
22737;SDS011;11536;50.860;4.286;2022-07-03T02:20:59;4.05;;;1.00;;
22737;SDS011;11536;50.860;4.286;2022-07-03T02:23:51;2.25;;;0.95;;
22737;SDS011;11536;50.860;4.286;2022-07-03T02:26:59;1.98;;;0.70;;
22737;SDS011;11536;50.860;4.286;2022-07-03T02:29:33;4.35;;;0.98;;
22737;SDS011;11536;50.860;4.286;2022-07-03T02:32:11;3.75;;;1.00;;
22737;SDS011;11536;50.860;4.286;2022-07-03T02:34:42;1.95;;;0.65;;
22737;SDS011;11536;50.860;4.286;2022-07-03T02:37:12;2.13;;;0.80;;
22737;SDS011;11536;50.860;4.286;2022-07-03T02:39:52;2.67;;;0.80;;
22737;SDS011;11536;50.860;4.286;2022-07-03T02:42:48;1.88;;;0.85;;
22737;SDS011;11536;50.860;4.286;2022-07-03T02:46:01;3.08;;;0.77;;
22737;SDS011;11536;50.860;4.286;2022-07-03T02:48:54;2.58;;;0.77;;
22737;SDS011;11536;50.860;4.286;2022-07-03T02:51:27;3.17;;;0.80;;
22737;SDS011;11536;50.860;4.286;2022-07-03T02:54:02;4.28;;;1.00;;
22737;SDS011;11536;50.860;4.286;2022-07-03T03:02:19;8.32;;;1.52;;
22737;SDS011;11536;50.860;4.286;2022-07-03T03:05:13;8.70;;;1.45;;
22737;SDS011;11536;50.860;4.286;2022-07-03T03:08:31;7.90;;;1.30;;
22737;SDS011;11536;50.860;4.286;2022-07-03T03:10:40;12.93;;;1.30;;
22737;SDS011;11536;50.860;4.286;2022-07-03T03:13:09;9.90;;;1.42;;
22737;SDS011;11536;50.860;4.286;2022-07-03T03:15:37;7.38;;;1.35;;
22737;SDS011;11536;50.860;4.286;2022-07-03T03:18:06;3.47;;;0.68;;
22737;SDS011;11536;50.860;4.286;2022-07-03T03:20:33;5.85;;;0.60;;
22737;SDS011;11536;50.860;4.286;2022-07-03T03:23:21;3.42;;;0.85;;
22737;SDS011;11536;50.860;4.286;2022-07-03T03:25:52;4.97;;;0.82;;
22737;SDS011;11536;50.860;4.286;2022-07-03T03:28:18;2.47;;;0.52;;
22737;SDS011;11536;50.860;4.286;2022-07-03T03:33:09;2.40;;;0.60;;
22737;SDS011;11536;50.860;4.286;2022-07-03T03:35:36;1.50;;;0.57;;
22737;SDS011;11536;50.860;4.286;2022-07-03T03:38:03;2.17;;;0.60;;
22737;SDS011;11536;50.860;4.286;2022-07-03T03:40:29;3.13;;;0.57;;
22737;SDS011;11536;50.860;4.286;2022-07-03T03:42:56;2.22;;;0.47;;
22737;SDS011;11536;50.860;4.286;2022-07-03T03:45:22;3.53;;;0.70;;
22737;SDS011;11536;50.860;4.286;2022-07-03T03:47:47;3.28;;;0.50;;
22737;SDS011;11536;50.860;4.286;2022-07-03T03:50:13;5.55;;;1.23;;
22737;SDS011;11536;50.860;4.286;2022-07-03T03:52:39;4.72;;;1.38;;
22737;SDS011;11536;50.860;4.286;2022-07-03T03:55:05;4.13;;;0.73;;
22737;SDS011;11536;50.860;4.286;2022-07-03T03:57:31;3.15;;;0.93;;
22737;SDS011;11536;50.860;4.286;2022-07-03T03:59:56;3.55;;;0.80;;
22737;SDS011;11536;50.860;4.286;2022-07-03T04:02:22;1.80;;;0.57;;
22737;SDS011;11536;50.860;4.286;2022-07-03T04:04:48;2.35;;;0.60;;
22737;SDS011;11536;50.860;4.286;2022-07-03T04:07:13;3.70;;;0.75;;
22737;SDS011;11536;50.860;4.286;2022-07-03T04:09:39;2.28;;;0.80;;
22737;SDS011;11536;50.860;4.286;2022-07-03T04:12:05;4.60;;;0.70;;
22737;SDS011;11536;50.860;4.286;2022-07-03T04:14:31;3.80;;;0.85;;
22737;SDS011;11536;50.860;4.286;2022-07-03T04:16:56;3.83;;;0.80;;
22737;SDS011;11536;50.860;4.286;2022-07-03T04:19:22;4.38;;;0.80;;
22737;SDS011;11536;50.860;4.286;2022-07-03T04:21:48;3.10;;;0.52;;
22737;SDS011;11536;50.860;4.286;2022-07-03T04:24:16;3.75;;;0.70;;
22737;SDS011;11536;50.860;4.286;2022-07-03T04:26:42;4.50;;;1.00;;
22737;SDS011;11536;50.860;4.286;2022-07-03T04:29:08;5.22;;;0.77;;
22737;SDS011;11536;50.860;4.286;2022-07-03T04:31:33;2.38;;;0.70;;
22737;SDS011;11536;50.860;4.286;2022-07-03T04:33:59;2.78;;;0.90;;
22737;SDS011;11536;50.860;4.286;2022-07-03T04:36:25;3.05;;;0.77;;
22737;SDS011;11536;50.860;4.286;2022-07-03T04:38:50;2.90;;;0.82;;
22737;SDS011;11536;50.860;4.286;2022-07-03T04:41:16;3.38;;;0.90;;
22737;SDS011;11536;50.860;4.286;2022-07-03T04:43:41;2.13;;;0.60;;
22737;SDS011;11536;50.860;4.286;2022-07-03T04:46:07;3.13;;;0.60;;
22737;SDS011;11536;50.860;4.286;2022-07-03T04:48:32;2.58;;;0.80;;
22737;SDS011;11536;50.860;4.286;2022-07-03T04:50:58;4.85;;;0.98;;
22737;SDS011;11536;50.860;4.286;2022-07-03T04:53:24;3.40;;;0.80;;
22737;SDS011;11536;50.860;4.286;2022-07-03T04:55:49;2.13;;;0.77;;
22737;SDS011;11536;50.860;4.286;2022-07-03T04:58:16;4.07;;;0.95;;
22737;SDS011;11536;50.860;4.286;2022-07-03T05:00:42;2.67;;;0.80;;
22737;SDS011;11536;50.860;4.286;2022-07-03T05:03:09;2.75;;;0.90;;
22737;SDS011;11536;50.860;4.286;2022-07-03T05:05:35;3.58;;;0.90;;
22737;SDS011;11536;50.860;4.286;2022-07-03T05:08:00;3.42;;;1.00;;
22737;SDS011;11536;50.860;4.286;2022-07-03T05:10:26;4.45;;;1.23;;
22737;SDS011;11536;50.860;4.286;2022-07-03T05:12:53;3.92;;;1.10;;
22737;SDS011;11536;50.860;4.286;2022-07-03T05:15:19;3.13;;;1.10;;
22737;SDS011;11536;50.860;4.286;2022-07-03T05:17:45;3.30;;;1.27;;
22737;SDS011;11536;50.860;4.286;2022-07-03T05:20:11;4.07;;;1.23;;
22737;SDS011;11536;50.860;4.286;2022-07-03T05:22:49;5.10;;;1.33;;
22737;SDS011;11536;50.860;4.286;2022-07-03T05:25:15;3.90;;;1.30;;
22737;SDS011;11536;50.860;4.286;2022-07-03T05:27:41;6.60;;;1.63;;
22737;SDS011;11536;50.860;4.286;2022-07-03T05:30:07;5.82;;;1.80;;
22737;SDS011;11536;50.860;4.286;2022-07-03T05:32:33;4.13;;;1.50;;
22737;SDS011;11536;50.860;4.286;2022-07-03T05:34:58;4.15;;;1.60;;
22737;SDS011;11536;50.860;4.286;2022-07-03T05:37:24;4.68;;;1.33;;
22737;SDS011;11536;50.860;4.286;2022-07-03T05:39:50;3.78;;;1.40;;
22737;SDS011;11536;50.860;4.286;2022-07-03T05:42:15;5.88;;;1.60;;
22737;SDS011;11536;50.860;4.286;2022-07-03T05:44:41;3.78;;;1.30;;
22737;SDS011;11536;50.860;4.286;2022-07-03T05:47:07;5.90;;;1.65;;
22737;SDS011;11536;50.860;4.286;2022-07-03T05:49:32;4.90;;;1.80;;
22737;SDS011;11536;50.860;4.286;2022-07-03T05:51:58;3.72;;;1.40;;
22737;SDS011;11536;50.860;4.286;2022-07-03T05:54:23;4.35;;;1.50;;
22737;SDS011;11536;50.860;4.286;2022-07-03T05:56:49;4.32;;;1.63;;
22737;SDS011;11536;50.860;4.286;2022-07-03T05:59:14;6.30;;;1.77;;
22737;SDS011;11536;50.860;4.286;2022-07-03T06:01:40;3.83;;;1.30;;
22737;SDS011;11536;50.860;4.286;2022-07-03T06:04:06;7.75;;;1.75;;
22737;SDS011;11536;50.860;4.286;2022-07-03T06:06:31;4.28;;;1.45;;
22737;SDS011;11536;50.860;4.286;2022-07-03T06:08:57;5.20;;;1.40;;
22737;SDS011;11536;50.860;4.286;2022-07-03T06:11:23;3.78;;;1.45;;
22737;SDS011;11536;50.860;4.286;2022-07-03T06:13:48;3.70;;;1.20;;
22737;SDS011;11536;50.860;4.286;2022-07-03T06:16:14;6.53;;;1.40;;
22737;SDS011;11536;50.860;4.286;2022-07-03T06:18:39;4.28;;;1.30;;
22737;SDS011;11536;50.860;4.286;2022-07-03T06:21:05;4.55;;;1.48;;
22737;SDS011;11536;50.860;4.286;2022-07-03T06:23:30;5.20;;;1.70;;
22737;SDS011;11536;50.860;4.286;2022-07-03T06:25:56;6.28;;;1.70;;
22737;SDS011;11536;50.860;4.286;2022-07-03T06:28:22;5.22;;;1.40;;
22737;SDS011;11536;50.860;4.286;2022-07-03T06:30:47;7.93;;;1.35;;
22737;SDS011;11536;50.860;4.286;2022-07-03T06:33:13;4.03;;;1.33;;
22737;SDS011;11536;50.860;4.286;2022-07-03T06:35:38;3.53;;;1.17;;
22737;SDS011;11536;50.860;4.286;2022-07-03T06:38:04;4.85;;;1.20;;
22737;SDS011;11536;50.860;4.286;2022-07-03T06:40:30;4.80;;;1.70;;
22737;SDS011;11536;50.860;4.286;2022-07-03T06:42:56;2.20;;;0.90;;
22737;SDS011;11536;50.860;4.286;2022-07-03T06:45:22;6.32;;;1.10;;
22737;SDS011;11536;50.860;4.286;2022-07-03T06:47:48;4.70;;;1.58;;
22737;SDS011;11536;50.860;4.286;2022-07-03T06:50:13;5.90;;;1.55;;
22737;SDS011;11536;50.860;4.286;2022-07-03T06:52:39;4.72;;;1.30;;
22737;SDS011;11536;50.860;4.286;2022-07-03T06:55:05;3.13;;;1.17;;
22737;SDS011;11536;50.860;4.286;2022-07-03T06:57:31;5.03;;;1.30;;
22737;SDS011;11536;50.860;4.286;2022-07-03T06:59:56;5.45;;;1.33;;
22737;SDS011;11536;50.860;4.286;2022-07-03T07:02:22;5.35;;;1.60;;
22737;SDS011;11536;50.860;4.286;2022-07-03T07:04:48;4.80;;;1.50;;
22737;SDS011;11536;50.860;4.286;2022-07-03T07:07:13;4.82;;;1.58;;
22737;SDS011;11536;50.860;4.286;2022-07-03T07:09:39;5.57;;;1.55;;
22737;SDS011;11536;50.860;4.286;2022-07-03T07:12:05;6.30;;;1.55;;
22737;SDS011;11536;50.860;4.286;2022-07-03T07:14:31;5.38;;;1.60;;
22737;SDS011;11536;50.860;4.286;2022-07-03T07:16:56;5.72;;;2.00;;
22737;SDS011;11536;50.860;4.286;2022-07-03T07:19:22;3.63;;;1.60;;
22737;SDS011;11536;50.860;4.286;2022-07-03T07:21:48;5.30;;;1.40;;
22737;SDS011;11536;50.860;4.286;2022-07-03T07:24:13;5.45;;;1.40;;
22737;SDS011;11536;50.860;4.286;2022-07-03T07:26:39;7.15;;;1.65;;
22737;SDS011;11536;50.860;4.286;2022-07-03T07:29:04;4.78;;;1.58;;
22737;SDS011;11536;50.860;4.286;2022-07-03T07:31:30;6.93;;;1.92;;
22737;SDS011;11536;50.860;4.286;2022-07-03T07:33:56;5.07;;;1.45;;
22737;SDS011;11536;50.860;4.286;2022-07-03T07:36:21;4.07;;;1.50;;
22737;SDS011;11536;50.860;4.286;2022-07-03T07:38:47;6.93;;;2.10;;
22737;SDS011;11536;50.860;4.286;2022-07-03T07:41:13;4.45;;;1.80;;
22737;SDS011;11536;50.860;4.286;2022-07-03T07:43:38;6.97;;;1.90;;
22737;SDS011;11536;50.860;4.286;2022-07-03T07:46:04;6.47;;;1.67;;
22737;SDS011;11536;50.860;4.286;2022-07-03T07:48:29;4.47;;;1.40;;
22737;SDS011;11536;50.860;4.286;2022-07-03T07:50:56;7.07;;;1.90;;
22737;SDS011;11536;50.860;4.286;2022-07-03T07:53:21;7.10;;;1.90;;
22737;SDS011;11536;50.860;4.286;2022-07-03T07:55:47;5.55;;;1.73;;
22737;SDS011;11536;50.860;4.286;2022-07-03T07:58:12;6.18;;;1.42;;
22737;SDS011;11536;50.860;4.286;2022-07-03T08:00:38;3.83;;;1.42;;
22737;SDS011;11536;50.860;4.286;2022-07-03T08:03:24;6.32;;;1.48;;
22737;SDS011;11536;50.860;4.286;2022-07-03T08:06:09;5.30;;;1.40;;
22737;SDS011;11536;50.860;4.286;2022-07-03T08:08:35;4.10;;;1.35;;
22737;SDS011;11536;50.860;4.286;2022-07-03T08:11:00;4.57;;;1.10;;
22737;SDS011;11536;50.860;4.286;2022-07-03T08:13:26;3.47;;;0.88;;
22737;SDS011;11536;50.860;4.286;2022-07-03T08:15:52;2.45;;;0.70;;
22737;SDS011;11536;50.860;4.286;2022-07-03T08:18:18;3.72;;;0.90;;
22737;SDS011;11536;50.860;4.286;2022-07-03T08:20:44;2.92;;;0.80;;
22737;SDS011;11536;50.860;4.286;2022-07-03T08:23:09;3.33;;;0.70;;
22737;SDS011;11536;50.860;4.286;2022-07-03T08:25:35;3.92;;;0.60;;
22737;SDS011;11536;50.860;4.286;2022-07-03T08:28:01;6.40;;;0.98;;
22737;SDS011;11536;50.860;4.286;2022-07-03T08:30:27;2.65;;;0.73;;
22737;SDS011;11536;50.860;4.286;2022-07-03T08:32:57;3.75;;;0.80;;
22737;SDS011;11536;50.860;4.286;2022-07-03T08:35:23;2.70;;;0.70;;
22737;SDS011;11536;50.860;4.286;2022-07-03T08:37:49;2.95;;;0.85;;
22737;SDS011;11536;50.860;4.286;2022-07-03T08:40:16;4.28;;;0.95;;
22737;SDS011;11536;50.860;4.286;2022-07-03T08:42:50;2.42;;;0.80;;
22737;SDS011;11536;50.860;4.286;2022-07-03T08:45:22;3.35;;;0.75;;
22737;SDS011;11536;50.860;4.286;2022-07-03T08:47:49;3.55;;;0.90;;
22737;SDS011;11536;50.860;4.286;2022-07-03T08:50:15;2.55;;;0.68;;
22737;SDS011;11536;50.860;4.286;2022-07-03T08:52:43;2.75;;;0.60;;
22737;SDS011;11536;50.860;4.286;2022-07-03T08:55:12;2.60;;;0.68;;
22737;SDS011;11536;50.860;4.286;2022-07-03T08:57:40;4.05;;;1.00;;
22737;SDS011;11536;50.860;4.286;2022-07-03T09:00:07;5.30;;;0.80;;
22737;SDS011;11536;50.860;4.286;2022-07-03T09:02:39;4.30;;;0.88;;
22737;SDS011;11536;50.860;4.286;2022-07-03T09:05:08;3.30;;;0.75;;
22737;SDS011;11536;50.860;4.286;2022-07-03T09:07:39;2.17;;;0.60;;
22737;SDS011;11536;50.860;4.286;2022-07-03T09:10:07;2.75;;;0.70;;
22737;SDS011;11536;50.860;4.286;2022-07-03T09:12:35;3.78;;;0.63;;
22737;SDS011;11536;50.860;4.286;2022-07-03T09:15:01;9.25;;;0.90;;
22737;SDS011;11536;50.860;4.286;2022-07-03T09:17:30;4.32;;;0.63;;
22737;SDS011;11536;50.860;4.286;2022-07-03T09:20:03;3.42;;;0.70;;
22737;SDS011;11536;50.860;4.286;2022-07-03T09:22:31;4.03;;;0.50;;
22737;SDS011;11536;50.860;4.286;2022-07-03T09:25:05;4.78;;;0.80;;
22737;SDS011;11536;50.860;4.286;2022-07-03T09:27:33;3.25;;;0.70;;
22737;SDS011;11536;50.860;4.286;2022-07-03T09:30:00;2.72;;;0.70;;
22737;SDS011;11536;50.860;4.286;2022-07-03T09:32:46;5.07;;;0.90;;
22737;SDS011;11536;50.860;4.286;2022-07-03T09:40:22;2.35;;;0.57;;
22737;SDS011;11536;50.860;4.286;2022-07-03T09:42:59;4.03;;;0.95;;
22737;SDS011;11536;50.860;4.286;2022-07-03T09:45:25;3.05;;;0.65;;
22737;SDS011;11536;50.860;4.286;2022-07-03T09:47:51;1.92;;;0.50;;
22737;SDS011;11536;50.860;4.286;2022-07-03T09:50:17;1.42;;;0.40;;
22737;SDS011;11536;50.860;4.286;2022-07-03T09:52:46;3.15;;;0.47;;
22737;SDS011;11536;50.860;4.286;2022-07-03T09:55:19;2.08;;;0.40;;
22737;SDS011;11536;50.860;4.286;2022-07-03T09:57:46;1.85;;;0.43;;
22737;SDS011;11536;50.860;4.286;2022-07-03T10:02:57;2.93;;;0.50;;
22737;SDS011;11536;50.860;4.286;2022-07-03T10:05:34;1.50;;;0.40;;
22737;SDS011;11536;50.860;4.286;2022-07-03T10:08:08;1.88;;;0.40;;
22737;SDS011;11536;50.860;4.286;2022-07-03T10:10:40;1.92;;;0.40;;
22737;SDS011;11536;50.860;4.286;2022-07-03T10:13:09;1.88;;;0.40;;
22737;SDS011;11536;50.860;4.286;2022-07-03T10:15:36;3.50;;;0.50;;
22737;SDS011;11536;50.860;4.286;2022-07-03T10:18:07;2.25;;;0.45;;
22737;SDS011;11536;50.860;4.286;2022-07-03T10:20:34;1.88;;;0.40;;
22737;SDS011;11536;50.860;4.286;2022-07-03T10:23:03;2.92;;;0.50;;
22737;SDS011;11536;50.860;4.286;2022-07-03T10:25:29;2.53;;;0.50;;
22737;SDS011;11536;50.860;4.286;2022-07-03T10:27:56;2.55;;;0.50;;
22737;SDS011;11536;50.860;4.286;2022-07-03T10:30:22;2.78;;;0.60;;
22737;SDS011;11536;50.860;4.286;2022-07-03T10:32:49;1.98;;;0.45;;
22737;SDS011;11536;50.860;4.286;2022-07-03T10:35:38;0.88;;;0.32;;
22737;SDS011;11536;50.860;4.286;2022-07-03T10:43:47;2.70;;;0.40;;
22737;SDS011;11536;50.860;4.286;2022-07-03T10:46:33;3.92;;;0.70;;
22737;SDS011;11536;50.860;4.286;2022-07-03T10:51:57;3.03;;;0.60;;
22737;SDS011;11536;50.860;4.286;2022-07-03T10:54:25;1.88;;;0.50;;
22737;SDS011;11536;50.860;4.286;2022-07-03T11:07:29;2.78;;;0.65;;
22737;SDS011;11536;50.860;4.286;2022-07-03T11:21:02;3.13;;;0.50;;
22737;SDS011;11536;50.860;4.286;2022-07-03T11:23:56;5.18;;;0.60;;
22737;SDS011;11536;50.860;4.286;2022-07-03T11:26:41;2.72;;;0.40;;
22737;SDS011;11536;50.860;4.286;2022-07-03T11:29:06;1.70;;;0.40;;
22737;SDS011;11536;50.860;4.286;2022-07-03T11:31:49;2.13;;;0.40;;
22737;SDS011;11536;50.860;4.286;2022-07-03T11:34:19;0.63;;;0.30;;
22737;SDS011;11536;50.860;4.286;2022-07-03T11:36:45;3.88;;;0.40;;
22737;SDS011;11536;50.860;4.286;2022-07-03T11:39:12;5.25;;;0.50;;
22737;SDS011;11536;50.860;4.286;2022-07-03T11:44:05;2.78;;;0.40;;
22737;SDS011;11536;50.860;4.286;2022-07-03T11:46:33;2.53;;;0.30;;
22737;SDS011;11536;50.860;4.286;2022-07-03T11:51:35;2.03;;;0.38;;
22737;SDS011;11536;50.860;4.286;2022-07-03T11:54:02;1.30;;;0.30;;
22737;SDS011;11536;50.860;4.286;2022-07-03T11:56:29;2.55;;;0.30;;
22737;SDS011;11536;50.860;4.286;2022-07-03T11:58:55;4.30;;;0.45;;
22737;SDS011;11536;50.860;4.286;2022-07-03T12:03:58;3.38;;;0.55;;
22737;SDS011;11536;50.860;4.286;2022-07-03T12:06:42;2.45;;;0.40;;
22737;SDS011;11536;50.860;4.286;2022-07-03T12:09:18;1.75;;;0.40;;
22737;SDS011;11536;50.860;4.286;2022-07-03T12:11:51;0.65;;;0.30;;
22737;SDS011;11536;50.860;4.286;2022-07-03T12:17:04;2.95;;;0.40;;
22737;SDS011;11536;50.860;4.286;2022-07-03T12:19:30;3.72;;;0.60;;
22737;SDS011;11536;50.860;4.286;2022-07-03T12:21:56;2.38;;;0.50;;
22737;SDS011;11536;50.860;4.286;2022-07-03T12:24:22;3.28;;;0.43;;
22737;SDS011;11536;50.860;4.286;2022-07-03T12:26:48;4.10;;;0.60;;
22737;SDS011;11536;50.860;4.286;2022-07-03T12:29:14;2.72;;;0.50;;
22737;SDS011;11536;50.860;4.286;2022-07-03T12:31:41;2.10;;;0.30;;
22737;SDS011;11536;50.860;4.286;2022-07-03T12:34:12;1.23;;;0.50;;
22737;SDS011;11536;50.860;4.286;2022-07-03T12:36:39;2.63;;;0.35;;
22737;SDS011;11536;50.860;4.286;2022-07-03T12:39:06;3.17;;;0.52;;
22737;SDS011;11536;50.860;4.286;2022-07-03T12:41:32;3.60;;;0.50;;
22737;SDS011;11536;50.860;4.286;2022-07-03T12:43:58;1.70;;;0.40;;
22737;SDS011;11536;50.860;4.286;2022-07-03T12:48:56;4.18;;;0.60;;
22737;SDS011;11536;50.860;4.286;2022-07-03T12:51:36;1.88;;;0.50;;
22737;SDS011;11536;50.860;4.286;2022-07-03T12:54:13;2.35;;;0.55;;
22737;SDS011;11536;50.860;4.286;2022-07-03T12:56:41;4.05;;;0.55;;
22737;SDS011;11536;50.860;4.286;2022-07-03T12:59:23;6.60;;;0.60;;
22737;SDS011;11536;50.860;4.286;2022-07-03T13:02:09;3.35;;;0.50;;
22737;SDS011;11536;50.860;4.286;2022-07-03T13:04:35;3.45;;;0.50;;
22737;SDS011;11536;50.860;4.286;2022-07-03T13:07:06;3.20;;;0.63;;
22737;SDS011;11536;50.860;4.286;2022-07-03T13:09:33;2.95;;;0.40;;
22737;SDS011;11536;50.860;4.286;2022-07-03T13:12:00;3.78;;;0.50;;
22737;SDS011;11536;50.860;4.286;2022-07-03T13:14:26;1.95;;;0.30;;
22737;SDS011;11536;50.860;4.286;2022-07-03T13:16:53;3.92;;;0.65;;
22737;SDS011;11536;50.860;4.286;2022-07-03T13:19:23;3.22;;;0.50;;
22737;SDS011;11536;50.860;4.286;2022-07-03T13:21:51;2.80;;;0.65;;
22737;SDS011;11536;50.860;4.286;2022-07-03T13:24:21;3.15;;;0.60;;
22737;SDS011;11536;50.860;4.286;2022-07-03T13:26:48;2.42;;;0.50;;
22737;SDS011;11536;50.860;4.286;2022-07-03T13:29:16;4.28;;;0.50;;
22737;SDS011;11536;50.860;4.286;2022-07-03T13:31:42;1.83;;;0.50;;
22737;SDS011;11536;50.860;4.286;2022-07-03T13:34:08;2.05;;;0.40;;
22737;SDS011;11536;50.860;4.286;2022-07-03T13:36:34;5.13;;;0.50;;
22737;SDS011;11536;50.860;4.286;2022-07-03T13:39:00;3.22;;;0.52;;
22737;SDS011;11536;50.860;4.286;2022-07-03T13:41:25;3.00;;;0.60;;
22737;SDS011;11536;50.860;4.286;2022-07-03T13:43:52;2.95;;;0.50;;
22737;SDS011;11536;50.860;4.286;2022-07-03T13:46:18;3.22;;;0.50;;
22737;SDS011;11536;50.860;4.286;2022-07-03T13:48:49;2.83;;;0.35;;
22737;SDS011;11536;50.860;4.286;2022-07-03T13:51:15;2.80;;;0.50;;
22737;SDS011;11536;50.860;4.286;2022-07-03T13:53:41;2.75;;;0.47;;
22737;SDS011;11536;50.860;4.286;2022-07-03T13:56:06;2.42;;;0.40;;
22737;SDS011;11536;50.860;4.286;2022-07-03T13:58:32;1.95;;;0.50;;
22737;SDS011;11536;50.860;4.286;2022-07-03T14:00:58;2.97;;;0.50;;
22737;SDS011;11536;50.860;4.286;2022-07-03T14:03:25;2.55;;;0.50;;
22737;SDS011;11536;50.860;4.286;2022-07-03T14:05:50;3.25;;;0.50;;
22737;SDS011;11536;50.860;4.286;2022-07-03T14:08:19;2.85;;;0.50;;
22737;SDS011;11536;50.860;4.286;2022-07-03T14:10:45;1.70;;;0.40;;
22737;SDS011;11536;50.860;4.286;2022-07-03T14:13:11;3.17;;;0.45;;
22737;SDS011;11536;50.860;4.286;2022-07-03T14:15:36;4.65;;;0.60;;
22737;SDS011;11536;50.860;4.286;2022-07-03T14:18:02;2.67;;;0.50;;
22737;SDS011;11536;50.860;4.286;2022-07-03T14:20:28;1.98;;;0.50;;
22737;SDS011;11536;50.860;4.286;2022-07-03T14:22:54;3.47;;;0.60;;
22737;SDS011;11536;50.860;4.286;2022-07-03T14:25:19;3.38;;;0.80;;
22737;SDS011;11536;50.860;4.286;2022-07-03T14:27:45;1.98;;;0.50;;
22737;SDS011;11536;50.860;4.286;2022-07-03T14:30:30;3.78;;;0.50;;
22737;SDS011;11536;50.860;4.286;2022-07-03T14:33:14;3.42;;;0.50;;
22737;SDS011;11536;50.860;4.286;2022-07-03T14:35:40;4.63;;;0.52;;
22737;SDS011;11536;50.860;4.286;2022-07-03T14:38:06;2.80;;;0.50;;
22737;SDS011;11536;50.860;4.286;2022-07-03T14:40:31;1.90;;;0.52;;
22737;SDS011;11536;50.860;4.286;2022-07-03T14:42:57;3.40;;;0.63;;
22737;SDS011;11536;50.860;4.286;2022-07-03T14:45:23;3.13;;;0.63;;
22737;SDS011;11536;50.860;4.286;2022-07-03T14:47:49;4.07;;;0.75;;
22737;SDS011;11536;50.860;4.286;2022-07-03T14:50:15;3.60;;;0.50;;
22737;SDS011;11536;50.860;4.286;2022-07-03T14:52:40;2.47;;;0.50;;
22737;SDS011;11536;50.860;4.286;2022-07-03T14:55:06;1.50;;;0.35;;
22737;SDS011;11536;50.860;4.286;2022-07-03T14:57:38;1.65;;;0.30;;
22737;SDS011;11536;50.860;4.286;2022-07-03T15:00:14;1.63;;;0.30;;
22737;SDS011;11536;50.860;4.286;2022-07-03T15:05:32;2.33;;;0.55;;
22737;SDS011;11536;50.860;4.286;2022-07-03T15:10:39;3.55;;;0.60;;
22737;SDS011;11536;50.860;4.286;2022-07-03T15:13:05;2.70;;;0.40;;
22737;SDS011;11536;50.860;4.286;2022-07-03T15:15:31;2.17;;;0.50;;
22737;SDS011;11536;50.860;4.286;2022-07-03T15:17:58;2.88;;;0.40;;
22737;SDS011;11536;50.860;4.286;2022-07-03T15:20:26;4.30;;;0.60;;
22737;SDS011;11536;50.860;4.286;2022-07-03T15:22:56;2.47;;;0.47;;
22737;SDS011;11536;50.860;4.286;2022-07-03T15:25:24;1.95;;;0.40;;
22737;SDS011;11536;50.860;4.286;2022-07-03T15:27:53;2.65;;;0.30;;
22737;SDS011;11536;50.860;4.286;2022-07-03T15:30:20;1.48;;;0.40;;
22737;SDS011;11536;50.860;4.286;2022-07-03T15:32:47;0.73;;;0.25;;
22737;SDS011;11536;50.860;4.286;2022-07-03T15:35:14;2.25;;;0.40;;
22737;SDS011;11536;50.860;4.286;2022-07-03T15:40:32;3.03;;;0.50;;
22737;SDS011;11536;50.860;4.286;2022-07-03T16:00:13;1.38;;;0.43;;
22737;SDS011;11536;50.860;4.286;2022-07-03T16:05:27;2.22;;;0.35;;
22737;SDS011;11536;50.860;4.286;2022-07-03T16:07:58;1.90;;;0.38;;
22737;SDS011;11536;50.860;4.286;2022-07-03T16:10:25;3.08;;;0.40;;
22737;SDS011;11536;50.860;4.286;2022-07-03T16:12:51;6.93;;;0.40;;
22737;SDS011;11536;50.860;4.286;2022-07-03T16:15:20;2.47;;;0.57;;
22737;SDS011;11536;50.860;4.286;2022-07-03T16:17:47;0.88;;;0.40;;
22737;SDS011;11536;50.860;4.286;2022-07-03T16:20:14;1.80;;;0.55;;
22737;SDS011;11536;50.860;4.286;2022-07-03T16:22:41;3.67;;;0.60;;
22737;SDS011;11536;50.860;4.286;2022-07-03T16:25:08;2.20;;;0.50;;
22737;SDS011;11536;50.860;4.286;2022-07-03T16:27:34;4.70;;;0.73;;
22737;SDS011;11536;50.860;4.286;2022-07-03T16:30:00;3.30;;;0.55;;
22737;SDS011;11536;50.860;4.286;2022-07-03T16:32:28;2.90;;;0.50;;
22737;SDS011;11536;50.860;4.286;2022-07-03T16:35:02;2.58;;;0.63;;
22737;SDS011;11536;50.860;4.286;2022-07-03T16:40:10;1.75;;;0.50;;
22737;SDS011;11536;50.860;4.286;2022-07-03T16:42:37;2.30;;;0.30;;
22737;SDS011;11536;50.860;4.286;2022-07-03T16:45:08;3.30;;;0.60;;
22737;SDS011;11536;50.860;4.286;2022-07-03T16:47:39;3.47;;;0.60;;
22737;SDS011;11536;50.860;4.286;2022-07-03T16:50:15;1.65;;;0.40;;